Time;durP1;ratioP1;P1;durP2;ratioP2;P2;SDS_P1;SDS_P2;PMS_P1;PMS_P2;Temp;Humidity;BMP_temperature;BMP_pressure;BME280_temperature;BME280_humidity;BME280_pressure;Samples;Min_cycle;Max_cycle;Signal;HPM_P1;HPM_P2
2021/06/21 00:01:53;;;;;;;6.53;1.17;;;12.60;99.90;;;;;;5089944;28;20365;-87
2021/06/21 00:04:20;;;;;;;5.88;0.90;;;12.70;99.90;;;;;;5088766;28;20744;-87
2021/06/21 00:06:47;;;;;;;8.73;1.63;;;12.80;99.90;;;;;;5089643;28;20456;-86
2021/06/21 00:09:14;;;;;;;4.85;1.13;;;12.90;99.90;;;;;;5079295;28;20386;-90
2021/06/21 00:11:41;;;;;;;7.65;1.13;;;12.90;99.90;;;;;;5093265;28;20449;-89
2021/06/21 00:14:08;;;;;;;6.85;1.38;;;12.90;99.90;;;;;;5110184;28;20391;-88
2021/06/21 00:16:35;;;;;;;5.20;1.25;;;13.10;99.90;;;;;;5110030;28;20377;-87
2021/06/21 00:19:03;;;;;;;5.90;1.40;;;13.20;99.90;;;;;;5109898;28;20386;-88
2021/06/21 00:21:29;;;;;;;5.95;1.50;;;13.20;99.90;;;;;;5103930;28;20873;-87
2021/06/21 00:23:56;;;;;;;5.93;1.40;;;13.10;99.90;;;;;;5101774;28;20394;-87
2021/06/21 00:26:23;;;;;;;6.75;1.45;;;13.00;99.90;;;;;;5104099;28;20379;-89
2021/06/21 00:28:50;;;;;;;5.77;1.40;;;13.00;99.90;;;;;;5089059;28;20428;-87
2021/06/21 00:31:17;;;;;;;4.30;1.10;;;12.90;99.90;;;;;;5087565;28;20376;-87
2021/06/21 00:33:44;;;;;;;4.30;1.13;;;12.80;99.90;;;;;;5089165;28;20367;-87
2021/06/21 00:36:12;;;;;;;4.57;1.15;;;12.80;99.90;;;;;;5090040;28;20388;-89
2021/06/21 00:38:39;;;;;;;6.05;1.20;;;12.90;99.90;;;;;;5089145;28;20364;-88
2021/06/21 00:41:06;;;;;;;5.07;1.30;;;13.00;99.90;;;;;;5087648;28;20905;-89
2021/06/21 00:43:33;;;;;;;6.10;1.63;;;13.00;99.90;;;;;;5088645;28;20400;-88
2021/06/21 00:46:01;;;;;;;8.80;1.30;;;13.10;99.90;;;;;;5083311;28;20384;-87
2021/06/21 00:48:28;;;;;;;6.00;1.30;;;13.20;99.90;;;;;;5089106;28;20396;-88
2021/06/21 00:50:55;;;;;;;6.05;1.35;;;13.20;99.90;;;;;;5088794;28;20405;-88
2021/06/21 00:53:22;;;;;;;5.20;1.50;;;13.30;99.90;;;;;;5088740;28;20388;-87
2021/06/21 00:55:49;;;;;;;7.67;1.10;;;13.30;99.90;;;;;;5088936;28;21196;-88
2021/06/21 00:58:16;;;;;;;3.50;1.10;;;13.30;99.90;;;;;;5089348;28;20368;-87
2021/06/21 01:00:43;;;;;;;3.78;1.17;;;13.30;99.90;;;;;;5088885;28;20408;-89
2021/06/21 01:03:10;;;;;;;5.82;1.08;;;13.30;99.90;;;;;;5088689;28;20376;-87
2021/06/21 01:05:39;;;;;;;4.63;1.20;;;13.30;99.90;;;;;;5090631;28;20384;-89
2021/06/21 01:08:08;;;;;;;6.93;1.20;;;13.40;99.90;;;;;;5091327;28;20408;-86
2021/06/21 01:10:38;;;;;;;4.57;1.25;;;13.50;99.90;;;;;;5089590;28;20428;-86
2021/06/21 01:13:11;;;;;;;3.08;1.20;;;13.80;99.90;;;;;;5076280;28;20527;-88
2021/06/21 01:15:48;;;;;;;5.10;1.10;;;13.90;99.90;;;;;;5077484;28;20717;-87
2021/06/21 01:18:23;;;;;;;4.93;0.80;;;13.90;99.90;;;;;;5088311;28;20376;-87
2021/06/21 01:21:14;;;;;;;4.55;0.95;;;14.00;99.90;;;;;;5085385;28;20412;-87
2021/06/21 01:24:06;;;;;;;5.35;1.00;;;14.20;99.90;;;;;;5068738;28;20711;-88
2021/06/21 01:27:07;;;;;;;4.35;1.13;;;14.10;99.90;;;;;;5080955;28;20385;-89
2021/06/21 01:30:04;;;;;;;4.88;0.80;;;14.20;99.90;;;;;;5034937;28;20437;-87
2021/06/21 01:32:51;;;;;;;5.90;0.93;;;14.30;99.90;;;;;;5068442;28;20936;-87
2021/06/21 01:35:25;;;;;;;4.00;0.90;;;14.30;99.90;;;;;;5070427;28;20837;-88
2021/06/21 01:37:55;;;;;;;6.68;1.17;;;14.10;99.90;;;;;;5090007;28;20368;-88
2021/06/21 01:40:24;;;;;;;5.95;0.98;;;14.10;99.90;;;;;;5088147;28;20384;-89
2021/06/21 01:42:57;;;;;;;5.80;1.00;;;14.20;99.90;;;;;;5088572;28;20387;-89
2021/06/21 01:45:26;;;;;;;5.38;0.88;;;14.20;99.90;;;;;;5088731;28;21367;-89
2021/06/21 01:47:54;;;;;;;6.43;1.20;;;14.20;99.90;;;;;;5087999;28;20883;-91
2021/06/21 01:50:24;;;;;;;5.77;1.00;;;14.20;99.90;;;;;;5070209;28;20528;-88
2021/06/21 01:53:15;;;;;;;5.45;0.77;;;14.20;99.90;;;;;;5089962;28;20391;-87
2021/06/21 01:55:49;;;;;;;5.10;0.90;;;14.40;99.90;;;;;;5092282;28;20404;-87
2021/06/21 01:58:18;;;;;;;3.28;0.73;;;14.50;99.90;;;;;;5091997;28;20368;-90
2021/06/21 02:00:47;;;;;;;6.05;0.95;;;14.50;99.90;;;;;;5091764;28;20441;-88
2021/06/21 02:03:14;;;;;;;4.60;0.90;;;14.50;99.90;;;;;;5090788;28;20384;-87
2021/06/21 02:05:42;;;;;;;5.43;1.02;;;14.70;99.90;;;;;;5091765;28;20418;-88
2021/06/21 02:08:12;;;;;;;2.80;0.80;;;14.90;99.90;;;;;;5088744;28;20546;-87
2021/06/21 02:10:39;;;;;;;4.82;0.93;;;14.90;99.90;;;;;;5091717;28;20372;-87
2021/06/21 02:13:08;;;;;;;3.30;0.95;;;14.90;99.90;;;;;;5090796;28;20384;-90
2021/06/21 02:15:36;;;;;;;2.63;0.50;;;15.00;99.90;;;;;;5077701;28;20374;-88
2021/06/21 02:18:03;;;;;;;3.72;0.60;;;14.90;99.90;;;;;;5083953;28;20412;-87
2021/06/21 02:20:31;;;;;;;3.60;0.75;;;14.70;99.90;;;;;;5091676;28;20407;-91
2021/06/21 02:22:58;;;;;;;4.93;0.68;;;14.30;99.90;;;;;;5091323;28;20818;-90
2021/06/21 02:25:25;;;;;;;2.50;0.65;;;14.20;99.90;;;;;;5091483;28;20376;-87
2021/06/21 02:27:53;;;;;;;4.18;0.70;;;14.20;99.90;;;;;;5082671;28;20573;-89
2021/06/21 02:30:20;;;;;;;3.90;1.10;;;14.20;99.90;;;;;;5093244;28;20388;-90
2021/06/21 02:32:49;;;;;;;5.00;1.10;;;14.20;99.90;;;;;;5091456;28;20391;-89
2021/06/21 02:35:16;;;;;;;4.50;1.00;;;14.20;99.90;;;;;;5092686;28;20515;-91
2021/06/21 02:37:44;;;;;;;3.60;0.90;;;13.80;99.90;;;;;;5091161;28;20385;-88
2021/06/21 02:40:14;;;;;;;2.75;1.02;;;13.50;99.90;;;;;;5090971;28;20875;-89
2021/06/21 02:42:41;;;;;;;4.22;0.98;;;13.10;99.90;;;;;;5091132;28;20488;-90
2021/06/21 02:45:09;;;;;;;3.85;0.82;;;12.90;99.90;;;;;;5092872;28;20388;-92
2021/06/21 02:47:37;;;;;;;3.53;0.70;;;12.90;99.90;;;;;;5096152;28;20457;-89
2021/06/21 02:50:06;;;;;;;2.35;0.45;;;12.90;99.90;;;;;;5096689;28;20729;-93
2021/06/21 02:52:57;;;;;;;1.83;0.40;;;12.90;99.90;;;;;;5097052;28;20466;-93
2021/06/21 02:55:44;;;;;;;2.63;0.40;;;12.90;99.90;;;;;;5109804;28;20431;-94
2021/06/21 02:58:19;;;;;;;2.37;0.40;;;13.10;99.90;;;;;;5085281;28;20389;-94
2021/06/21 03:00:51;;;;;;;5.40;0.73;;;13.20;99.90;;;;;;5080953;28;20381;-95
2021/06/21 03:03:23;;;;;;;2.43;0.50;;;13.20;99.90;;;;;;5074321;28;20358;-94
2021/06/21 03:05:51;;;;;;;3.55;0.50;;;13.20;99.90;;;;;;5083294;28;20471;-92
2021/06/21 03:08:22;;;;;;;4.10;0.82;;;13.40;99.90;;;;;;5086323;28;20398;-95
2021/06/21 03:10:49;;;;;;;5.20;1.30;;;13.50;99.90;;;;;;5085266;28;20377;-93
2021/06/21 03:13:20;;;;;;;2.35;0.88;;;13.60;99.90;;;;;;5095180;28;20357;-94
2021/06/21 03:15:50;;;;;;;1.83;0.50;;;13.70;99.90;;;;;;5094836;28;20456;-91
2021/06/21 03:18:20;;;;;;;0.82;0.30;;;13.70;99.90;;;;;;5088835;28;20390;-94
2021/06/21 03:20:58;;;;;;;1.85;0.50;;;13.80;99.90;;;;;;5079770;28;20362;-91
2021/06/21 03:23:34;;;;;;;1.88;0.50;;;13.70;99.90;;;;;;5075317;28;20884;-94
2021/06/21 03:26:03;;;;;;;3.00;0.60;;;13.70;99.90;;;;;;5075067;28;20377;-95
2021/06/21 03:28:31;;;;;;;3.45;0.70;;;13.80;99.90;;;;;;5084016;28;20389;-95
2021/06/21 03:31:07;;;;;;;3.80;0.53;;;13.90;99.90;;;;;;5098405;28;20464;-93
2021/06/21 03:33:36;;;;;;;3.13;0.55;;;13.80;99.90;;;;;;5096181;28;20376;-93
2021/06/21 03:36:04;;;;;;;3.10;0.43;;;13.80;99.90;;;;;;5097405;28;20379;-93
2021/06/21 03:38:32;;;;;;;3.78;0.60;;;13.70;99.90;;;;;;5096751;28;20368;-95
2021/06/21 03:41:02;;;;;;;3.37;0.63;;;13.70;99.90;;;;;;5092214;28;20480;-95
2021/06/21 03:43:31;;;;;;;4.80;0.73;;;13.70;99.90;;;;;;5091968;28;20388;-96
2021/06/21 03:46:00;;;;;;;5.00;0.85;;;13.80;99.90;;;;;;5091911;28;20377;-93
2021/06/21 03:48:28;;;;;;;4.28;0.90;;;13.90;99.90;;;;;;5084220;28;20406;-93
2021/06/21 03:50:56;;;;;;;7.00;0.70;;;14.00;99.90;;;;;;5074301;28;20433;-91
2021/06/21 03:53:25;;;;;;;3.05;0.77;;;14.10;99.90;;;;;;5071571;28;20401;-91
2021/06/21 03:55:52;;;;;;;3.85;0.68;;;14.20;99.90;;;;;;5070430;28;20378;-89
2021/06/21 03:58:19;;;;;;;4.90;0.75;;;14.30;99.90;;;;;;5070720;28;20467;-90
2021/06/21 04:00:46;;;;;;;2.97;0.70;;;14.30;99.90;;;;;;5088374;28;20391;-91
2021/06/21 04:03:13;;;;;;;5.30;0.90;;;14.20;99.90;;;;;;5092063;28;20893;-89
2021/06/21 04:05:41;;;;;;;3.33;0.85;;;14.10;99.90;;;;;;5091017;28;20364;-90
2021/06/21 04:08:09;;;;;;;4.28;0.82;;;14.10;99.90;;;;;;5090234;28;20404;-86
2021/06/21 04:10:37;;;;;;;2.97;0.80;;;14.10;99.90;;;;;;5071609;28;20470;-94
2021/06/21 04:13:06;;;;;;;4.00;1.00;;;13.90;99.90;;;;;;5079771;28;20376;-91
2021/06/21 04:15:33;;;;;;;5.57;0.95;;;13.90;99.90;;;;;;5088671;28;20491;-86
2021/06/21 04:18:03;;;;;;;6.03;0.75;;;13.90;99.90;;;;;;5088467;28;20737;-89
2021/06/21 04:20:30;;;;;;;7.30;0.88;;;13.90;99.90;;;;;;5070599;28;20389;-91
2021/06/21 04:22:57;;;;;;;4.40;0.73;;;13.90;99.90;;;;;;5074942;28;20399;-87
2021/06/21 04:25:25;;;;;;;3.88;0.80;;;13.90;99.90;;;;;;5087561;28;20716;-88
2021/06/21 04:27:53;;;;;;;4.75;0.90;;;13.90;99.90;;;;;;5090465;28;20431;-89
2021/06/21 04:30:27;;;;;;;5.43;1.17;;;13.90;99.90;;;;;;5072458;28;20378;-87
2021/06/21 04:32:55;;;;;;;6.32;1.20;;;13.80;99.90;;;;;;5069187;28;20385;-90
2021/06/21 04:35:26;;;;;;;8.98;1.33;;;13.70;99.90;;;;;;5069114;28;20791;-89
2021/06/21 04:37:54;;;;;;;8.50;1.38;;;13.70;99.90;;;;;;5067873;28;20390;-85
2021/06/21 04:40:26;;;;;;;5.72;1.27;;;13.70;99.90;;;;;;5068691;28;20513;-86
2021/06/21 04:42:54;;;;;;;7.65;2.00;;;13.70;99.90;;;;;;5069091;28;20473;-90
2021/06/21 04:45:21;;;;;;;8.38;1.13;;;13.80;99.90;;;;;;5083215;28;20522;-90
2021/06/21 04:47:48;;;;;;;7.85;1.13;;;13.80;99.90;;;;;;5088963;28;20396;-89
2021/06/21 04:50:18;;;;;;;5.13;0.85;;;13.80;99.90;;;;;;5090528;28;20365;-90
2021/06/21 04:52:46;;;;;;;5.40;0.82;;;13.80;99.90;;;;;;5092487;28;20518;-89
2021/06/21 04:55:15;;;;;;;6.53;0.75;;;13.70;99.90;;;;;;5088115;28;20388;-89
2021/06/21 04:57:43;;;;;;;3.50;0.80;;;13.50;99.90;;;;;;5088613;28;20417;-90
2021/06/21 05:00:16;;;;;;;6.95;0.80;;;13.50;99.90;;;;;;5082095;28;20375;-88
2021/06/21 05:02:43;;;;;;;6.17;0.90;;;13.40;99.90;;;;;;5087856;28;20509;-88
2021/06/21 05:05:11;;;;;;;2.22;0.63;;;13.40;99.90;;;;;;5088957;28;20379;-86
2021/06/21 05:07:40;;;;;;;5.38;0.98;;;13.40;99.90;;;;;;5088238;28;20407;-89
2021/06/21 05:10:09;;;;;;;4.43;0.90;;;13.40;99.90;;;;;;5088435;28;20380;-89
2021/06/21 05:12:36;;;;;;;6.38;1.10;;;13.40;99.90;;;;;;5069272;28;20868;-87
2021/06/21 05:15:05;;;;;;;4.53;0.77;;;13.40;99.90;;;;;;5083060;28;20387;-87
2021/06/21 05:17:33;;;;;;;4.85;0.80;;;13.40;99.90;;;;;;5088302;28;20513;-87
2021/06/21 05:20:00;;;;;;;6.07;1.13;;;13.50;99.90;;;;;;5088992;28;20385;-87
2021/06/21 05:22:27;;;;;;;7.90;1.20;;;13.50;99.90;;;;;;5099059;28;20389;-87
2021/06/21 05:24:54;;;;;;;4.05;1.10;;;13.50;99.90;;;;;;5109223;28;20994;-88
2021/06/21 05:27:22;;;;;;;5.65;0.98;;;13.40;99.90;;;;;;5097466;28;20897;-87
2021/06/21 05:29:49;;;;;;;4.00;1.02;;;13.40;99.90;;;;;;5092245;28;20557;-87
2021/06/21 05:32:16;;;;;;;7.15;1.15;;;13.50;99.90;;;;;;5084576;28;20385;-88
2021/06/21 05:34:44;;;;;;;10.02;1.23;;;13.50;99.90;;;;;;5081651;28;21180;-88
2021/06/21 05:37:11;;;;;;;6.13;1.20;;;13.40;99.90;;;;;;5092211;28;20386;-88
2021/06/21 05:39:38;;;;;;;5.75;1.00;;;13.40;99.90;;;;;;5092339;28;20716;-87
2021/06/21 05:42:05;;;;;;;5.22;0.98;;;13.40;99.90;;;;;;5092295;28;20471;-88
2021/06/21 05:44:33;;;;;;;4.93;1.00;;;13.40;99.90;;;;;;5090967;28;20867;-88
2021/06/21 05:47:00;;;;;;;4.72;1.10;;;13.40;99.90;;;;;;5092065;28;20433;-84
2021/06/21 05:49:29;;;;;;;4.57;1.02;;;13.30;99.90;;;;;;5092210;28;20740;-86
2021/06/21 05:51:57;;;;;;;4.70;1.10;;;13.20;99.90;;;;;;5088024;28;20409;-88
2021/06/21 05:54:24;;;;;;;5.80;1.33;;;13.20;99.90;;;;;;5072115;28;20870;-87
2021/06/21 05:56:51;;;;;;;5.97;1.00;;;13.10;99.90;;;;;;5071036;28;20767;-87
2021/06/21 05:59:18;;;;;;;4.90;1.00;;;13.10;99.90;;;;;;5087588;28;20394;-87
2021/06/21 06:01:45;;;;;;;5.97;0.90;;;13.00;99.90;;;;;;5091717;28;20376;-88
2021/06/21 06:04:12;;;;;;;5.35;1.02;;;12.90;99.90;;;;;;5092620;28;20902;-87
2021/06/21 06:06:39;;;;;;;4.95;1.00;;;13.00;99.90;;;;;;5091842;28;20368;-88
2021/06/21 06:09:06;;;;;;;4.95;1.00;;;12.90;99.90;;;;;;5091497;28;20961;-86
2021/06/21 06:11:33;;;;;;;6.20;0.80;;;12.80;99.90;;;;;;5091425;28;21184;-86
2021/06/21 06:14:00;;;;;;;7.80;1.10;;;12.70;99.90;;;;;;5092094;28;20814;-87
2021/06/21 06:16:27;;;;;;;4.53;0.80;;;12.80;99.90;;;;;;5091055;28;20364;-86
2021/06/21 06:18:54;;;;;;;7.20;1.15;;;12.90;99.90;;;;;;5091703;28;20434;-87
2021/06/21 06:21:21;;;;;;;6.70;1.50;;;12.80;99.90;;;;;;5091750;28;20374;-86
2021/06/21 06:23:48;;;;;;;6.10;1.38;;;12.70;99.90;;;;;;5090831;28;20523;-86
2021/06/21 06:26:15;;;;;;;6.78;1.23;;;12.60;99.90;;;;;;5091669;28;20368;-88
2021/06/21 06:28:42;;;;;;;6.55;1.20;;;12.60;99.90;;;;;;5091404;28;20449;-87
2021/06/21 06:31:09;;;;;;;7.07;1.40;;;12.50;99.90;;;;;;5090458;28;20412;-88
2021/06/21 06:33:37;;;;;;;5.97;1.15;;;12.50;99.90;;;;;;5092026;28;20381;-91
2021/06/21 06:36:05;;;;;;;4.10;0.93;;;12.40;99.90;;;;;;5091967;28;20451;-88
2021/06/21 06:38:32;;;;;;;6.72;1.45;;;12.40;99.90;;;;;;5089903;28;20375;-87
2021/06/21 06:41:03;;;;;;;7.93;2.25;;;12.30;99.90;;;;;;5091121;28;20377;-87
2021/06/21 06:43:30;;;;;;;6.97;1.45;;;12.30;99.90;;;;;;5070769;28;20397;-88
2021/06/21 06:45:57;;;;;;;6.23;1.77;;;12.30;99.90;;;;;;5070055;28;20362;-88
2021/06/21 06:48:25;;;;;;;9.80;3.05;;;12.20;99.90;;;;;;5070524;28;20500;-89
2021/06/21 06:50:52;;;;;;;7.67;2.30;;;12.20;99.90;;;;;;5071207;28;20370;-89
2021/06/21 06:53:27;;;;;;;8.57;2.40;;;12.20;99.90;;;;;;5087280;28;20483;-86
2021/06/21 06:58:38;;;;;;;7.97;1.42;;;12.10;99.90;;;;;;5092172;28;20385;-90
2021/06/21 07:01:05;;;;;;;6.13;1.35;;;12.10;99.90;;;;;;5092067;28;20486;-88
2021/06/21 07:03:32;;;;;;;6.43;1.80;;;12.10;99.90;;;;;;5081737;28;20378;-88
2021/06/21 07:05:59;;;;;;;6.75;1.83;;;12.00;99.90;;;;;;5072893;28;20436;-88
2021/06/21 07:08:26;;;;;;;7.85;1.60;;;12.10;99.90;;;;;;5070317;28;20398;-89
2021/06/21 07:10:53;;;;;;;6.20;1.30;;;12.10;99.90;;;;;;5071017;28;20936;-88
2021/06/21 07:13:20;;;;;;;3.90;1.17;;;12.10;99.90;;;;;;5071192;28;20412;-85
2021/06/21 07:15:49;;;;;;;4.10;1.33;;;12.20;99.90;;;;;;5089621;28;20404;-87
2021/06/21 07:18:15;;;;;;;5.55;1.50;;;12.20;99.90;;;;;;5091662;28;20377;-91
2021/06/21 07:20:47;;;;;;;6.63;1.58;;;12.20;99.90;;;;;;5099588;28;20364;-90
2021/06/21 07:23:15;;;;;;;5.75;1.30;;;12.20;99.90;;;;;;5090619;28;20399;-87
2021/06/21 07:25:44;;;;;;;4.75;1.20;;;12.20;99.90;;;;;;5089026;28;20384;-86
2021/06/21 07:28:12;;;;;;;10.27;1.50;;;12.20;99.90;;;;;;5090460;28;20404;-89
2021/06/21 07:30:39;;;;;;;3.35;1.38;;;12.20;99.90;;;;;;5090255;28;20759;-89
2021/06/21 07:33:06;;;;;;;6.60;1.48;;;12.10;99.90;;;;;;5090792;28;20785;-90
2021/06/21 07:35:33;;;;;;;6.03;1.45;;;12.00;99.90;;;;;;5090562;28;20697;-89
2021/06/21 07:38:00;;;;;;;5.78;1.38;;;12.00;99.90;;;;;;5091595;28;20369;-93
2021/06/21 07:40:27;;;;;;;6.45;1.50;;;12.00;99.90;;;;;;5080262;28;20536;-90
2021/06/21 07:42:54;;;;;;;6.27;1.70;;;12.00;99.90;;;;;;5080126;28;20466;-91
2021/06/21 07:45:21;;;;;;;6.90;1.97;;;11.90;99.90;;;;;;5089965;28;20380;-92
2021/06/21 07:47:48;;;;;;;5.50;1.60;;;11.90;99.90;;;;;;5095591;28;20397;-89
2021/06/21 07:50:14;;;;;;;5.63;1.52;;;11.90;99.90;;;;;;5091388;28;20410;-94
2021/06/21 07:52:42;;;;;;;6.63;1.70;;;11.90;99.90;;;;;;5095487;28;20368;-93
2021/06/21 07:55:09;;;;;;;5.75;1.48;;;12.00;99.90;;;;;;5096596;28;20379;-95
2021/06/21 07:57:36;;;;;;;4.40;1.80;;;12.00;99.90;;;;;;5099983;28;20398;-91
2021/06/21 08:00:05;;;;;;;3.33;1.50;;;12.10;99.90;;;;;;5110125;28;20559;-87
2021/06/21 08:02:31;;;;;;;2.03;1.00;;;12.10;99.90;;;;;;5109488;28;20448;-87
2021/06/21 08:04:59;;;;;;;2.30;0.77;;;12.10;99.90;;;;;;5112633;28;20408;-94
2021/06/21 08:07:25;;;;;;;2.67;1.40;;;12.30;99.90;;;;;;5111849;28;20395;-93
2021/06/21 08:09:52;;;;;;;4.53;2.00;;;12.40;99.90;;;;;;5110759;28;20390;-92
2021/06/21 08:12:20;;;;;;;3.70;1.58;;;12.40;99.90;;;;;;5110824;28;20380;-90
2021/06/21 08:14:47;;;;;;;4.50;1.93;;;12.40;99.90;;;;;;5109910;28;21186;-93
2021/06/21 08:17:14;;;;;;;8.63;5.60;;;12.30;99.90;;;;;;5108315;28;20390;-91
2021/06/21 08:19:44;;;;;;;11.50;9.10;;;12.20;99.90;;;;;;5087983;28;20477;-88
2021/06/21 08:22:12;;;;;;;4.78;3.40;;;12.20;99.90;;;;;;5086235;28;20392;-89
2021/06/21 08:24:41;;;;;;;4.03;1.92;;;12.10;99.90;;;;;;5088090;28;20442;-88
2021/06/21 08:27:09;;;;;;;5.18;2.58;;;12.10;99.90;;;;;;5087413;28;20827;-89
2021/06/21 08:29:36;;;;;;;3.95;2.15;;;12.00;99.90;;;;;;5086457;28;20415;-91
2021/06/21 08:32:03;;;;;;;5.20;2.35;;;11.90;99.90;;;;;;5087235;28;20392;-90
2021/06/21 08:34:30;;;;;;;13.67;9.50;;;11.90;99.90;;;;;;5089951;28;20500;-88
2021/06/21 08:36:57;;;;;;;5.33;3.97;;;11.90;99.90;;;;;;5088195;28;20739;-86
2021/06/21 08:39:24;;;;;;;22.45;12.82;;;11.80;99.90;;;;;;5087418;28;20398;-84
2021/06/21 08:41:51;;;;;;;17.10;10.20;;;11.80;99.90;;;;;;5085199;28;20462;-86
2021/06/21 08:44:18;;;;;;;13.20;7.93;;;11.70;99.90;;;;;;5089145;28;20392;-88
2021/06/21 08:46:49;;;;;;;8.90;5.30;;;11.60;99.90;;;;;;5087273;28;20418;-89
2021/06/21 08:49:17;;;;;;;10.90;4.60;;;11.70;99.90;;;;;;5091426;28;20977;-91
2021/06/21 08:51:44;;;;;;;6.38;3.53;;;11.70;99.90;;;;;;5088477;28;20385;-89
2021/06/21 08:54:11;;;;;;;8.88;3.50;;;11.60;99.90;;;;;;5085085;28;20407;-89
2021/06/21 08:56:38;;;;;;;7.43;2.63;;;11.60;99.90;;;;;;5088733;28;20393;-85
2021/06/21 08:59:06;;;;;;;6.68;2.38;;;11.50;99.90;;;;;;5086930;28;20468;-88
2021/06/21 09:01:37;;;;;;;13.18;2.78;;;11.50;99.90;;;;;;5077766;28;20388;-88
2021/06/21 09:04:05;;;;;;;79.38;6.25;;;11.50;99.90;;;;;;5087320;28;20388;-84
2021/06/21 09:06:42;;;;;;;51.78;4.43;;;11.40;99.90;;;;;;5088692;28;20460;-85
2021/06/21 09:09:10;;;;;;;7.45;2.22;;;11.40;99.90;;;;;;5088656;28;20478;-85
2021/06/21 09:11:46;;;;;;;6.93;2.20;;;11.40;99.90;;;;;;5084885;28;20392;-86
2021/06/21 09:14:25;;;;;;;6.72;2.00;;;11.40;99.90;;;;;;5084325;28;20396;-86
2021/06/21 09:16:54;;;;;;;7.40;2.35;;;11.30;99.90;;;;;;5079000;28;20400;-88
2021/06/21 09:19:22;;;;;;;5.57;2.33;;;11.20;99.90;;;;;;5083773;28;20435;-88
2021/06/21 09:21:50;;;;;;;6.37;2.77;;;11.20;99.90;;;;;;5087521;28;20404;-86
2021/06/21 09:24:26;;;;;;;6.28;2.67;;;11.10;99.90;;;;;;5088561;28;20881;-86
2021/06/21 09:27:00;;;;;;;5.27;2.80;;;11.00;99.90;;;;;;5068816;28;20370;-86
2021/06/21 09:29:38;;;;;;;7.13;3.30;;;11.00;99.90;;;;;;5079906;28;20504;-86
2021/06/21 09:32:06;;;;;;;10.00;3.40;;;10.80;99.90;;;;;;5075020;28;20391;-86
2021/06/21 09:34:33;;;;;;;8.90;3.38;;;10.80;99.90;;;;;;5085755;28;20392;-89
2021/06/21 09:37:10;;;;;;;9.13;3.40;;;10.70;99.90;;;;;;5085350;28;20376;-85
2021/06/21 09:39:41;;;;;;;7.00;3.30;;;10.70;99.90;;;;;;5081589;28;20398;-86
2021/06/21 09:42:23;;;;;;;7.43;3.63;;;10.60;99.90;;;;;;5070964;28;20495;-86
2021/06/21 09:45:08;;;;;;;9.40;3.38;;;10.50;99.90;;;;;;5084063;28;20459;-86
2021/06/21 09:47:39;;;;;;;9.18;3.10;;;10.50;99.90;;;;;;5085391;28;20396;-86
2021/06/21 09:50:26;;;;;;;10.25;3.35;;;10.50;99.90;;;;;;5086257;28;20396;-86
2021/06/21 09:52:55;;;;;;;9.23;3.30;;;10.50;99.90;;;;;;5087858;28;20463;-85
2021/06/21 09:55:30;;;;;;;8.32;3.13;;;10.40;99.90;;;;;;5087310;28;20404;-85
2021/06/21 09:58:11;;;;;;;9.88;2.70;;;10.50;99.90;;;;;;5086567;28;20750;-84
2021/06/21 10:00:47;;;;;;;10.55;3.10;;;10.40;99.90;;;;;;5085193;28;20483;-87
2021/06/21 10:03:16;;;;;;;10.70;3.42;;;10.40;99.90;;;;;;5068261;28;20391;-85
2021/06/21 10:05:47;;;;;;;12.38;3.80;;;10.50;99.90;;;;;;5084320;28;20828;-85
2021/06/21 10:08:15;;;;;;;10.65;3.92;;;10.50;99.90;;;;;;5082662;28;20418;-85
2021/06/21 10:10:44;;;;;;;11.63;3.80;;;10.50;99.90;;;;;;5085453;28;20380;-85
2021/06/21 10:13:12;;;;;;;8.38;3.40;;;10.50;99.90;;;;;;5085888;28;21131;-85
2021/06/21 10:15:39;;;;;;;10.63;3.58;;;10.60;99.90;;;;;;5087919;28;20760;-84
2021/06/21 10:18:07;;;;;;;10.85;3.55;;;10.50;99.90;;;;;;5089270;28;20475;-84
2021/06/21 10:20:35;;;;;;;8.63;3.47;;;10.60;99.90;;;;;;5086135;28;21111;-85
2021/06/21 10:23:05;;;;;;;8.02;3.28;;;10.60;99.90;;;;;;5072642;28;20434;-85
2021/06/21 10:25:32;;;;;;;10.48;3.90;;;10.60;99.90;;;;;;5076900;28;20924;-85
2021/06/21 10:28:01;;;;;;;11.85;4.50;;;10.60;99.90;;;;;;5086392;28;20511;-84
2021/06/21 10:30:30;;;;;;;10.10;6.03;;;10.60;99.90;;;;;;5083601;28;20392;-85
2021/06/21 10:32:57;;;;;;;9.40;5.63;;;10.60;99.90;;;;;;5084231;28;20384;-86
2021/06/21 10:35:29;;;;;;;9.75;5.65;;;10.70;99.90;;;;;;5088864;28;20452;-85
2021/06/21 10:38:02;;;;;;;8.95;4.80;;;10.70;99.90;;;;;;5086617;28;20461;-85
2021/06/21 10:40:30;;;;;;;10.40;4.30;;;10.70;99.90;;;;;;5075725;28;20909;-85
2021/06/21 10:42:57;;;;;;;8.68;3.97;;;10.70;99.90;;;;;;5087854;28;20397;-85
2021/06/21 10:45:27;;;;;;;8.82;4.00;;;10.70;99.90;;;;;;5079931;28;20393;-85
2021/06/21 10:48:07;;;;;;;8.77;3.73;;;10.70;99.90;;;;;;5087152;28;20417;-85
2021/06/21 10:50:50;;;;;;;10.30;3.90;;;10.70;99.90;;;;;;5088414;28;20389;-86
2021/06/21 10:53:17;;;;;;;7.28;3.30;;;10.80;99.90;;;;;;5088139;28;21000;-85
2021/06/21 10:55:51;;;;;;;7.18;3.67;;;10.80;99.90;;;;;;5088704;28;20402;-84
2021/06/21 10:58:21;;;;;;;11.25;5.75;;;10.80;99.90;;;;;;5086988;28;20863;-84
2021/06/21 11:00:53;;;;;;;11.63;6.10;;;10.80;99.90;;;;;;5087109;28;20380;-85
2021/06/21 11:03:28;;;;;;;10.68;5.30;;;10.80;99.90;;;;;;5081382;28;20493;-85
2021/06/21 11:06:01;;;;;;;13.82;5.28;;;10.70;99.90;;;;;;5083205;28;20385;-85
2021/06/21 11:08:50;;;;;;;8.38;3.78;;;10.80;99.90;;;;;;5086091;28;20767;-85
2021/06/21 11:11:36;;;;;;;9.00;3.80;;;10.80;99.90;;;;;;5085205;28;20499;-84
2021/06/21 11:14:08;;;;;;;7.43;3.10;;;10.80;99.90;;;;;;5087512;28;20755;-84
2021/06/21 11:16:36;;;;;;;9.05;2.80;;;10.90;99.90;;;;;;5087167;28;20380;-86
2021/06/21 11:19:24;;;;;;;6.93;2.70;;;10.90;99.90;;;;;;5084809;28;20396;-84
2021/06/21 11:21:54;;;;;;;6.43;2.60;;;10.90;99.90;;;;;;5084683;28;20488;-84
2021/06/21 11:24:36;;;;;;;8.18;2.63;;;10.90;99.90;;;;;;5078850;28;20372;-84
2021/06/21 11:27:31;;;;;;;6.70;2.30;;;10.90;99.90;;;;;;5087180;28;20388;-84
2021/06/21 11:30:01;;;;;;;6.32;2.65;;;10.90;99.90;;;;;;5047551;28;20409;-83
2021/06/21 11:32:28;;;;;;;6.53;2.80;;;11.00;99.90;;;;;;5077126;28;20395;-84
2021/06/21 11:35:01;;;;;;;6.88;2.55;;;10.90;99.90;;;;;;5086331;28;20441;-85
2021/06/21 11:37:38;;;;;;;7.00;2.47;;;10.90;99.90;;;;;;5084985;28;20993;-86
2021/06/21 11:40:26;;;;;;;5.13;2.97;;;10.90;99.90;;;;;;5089745;28;20411;-85
2021/06/21 11:43:02;;;;;;;7.63;2.40;;;10.90;99.90;;;;;;5084979;28;20403;-85
2021/06/21 11:45:57;;;;;;;4.90;2.40;;;10.90;99.90;;;;;;5085304;28;20439;-84
2021/06/21 11:48:30;;;;;;;4.78;2.45;;;10.90;99.90;;;;;;5083579;28;20495;-85
2021/06/21 11:50:59;;;;;;;5.50;2.65;;;10.80;99.90;;;;;;5086268;28;20894;-84
2021/06/21 11:53:28;;;;;;;7.05;2.92;;;10.80;99.90;;;;;;5090115;28;20381;-84
2021/06/21 11:55:56;;;;;;;5.82;3.10;;;10.70;99.90;;;;;;5102965;28;20379;-83
2021/06/21 11:58:31;;;;;;;10.95;3.20;;;10.70;99.90;;;;;;5091399;28;20926;-83
2021/06/21 12:01:00;;;;;;;8.57;3.50;;;10.60;99.90;;;;;;5086940;28;20407;-83
2021/06/21 12:03:39;;;;;;;9.68;3.55;;;10.50;99.90;;;;;;5087535;28;20407;-82
2021/06/21 12:06:13;;;;;;;7.45;3.22;;;10.40;99.90;;;;;;5088913;28;20434;-84
2021/06/21 12:08:40;;;;;;;8.68;3.20;;;10.40;99.90;;;;;;5088888;28;20500;-83
2021/06/21 12:11:24;;;;;;;8.18;2.97;;;10.30;99.90;;;;;;5090111;28;20396;-83
2021/06/21 12:14:06;;;;;;;8.80;3.38;;;10.30;99.90;;;;;;5091462;28;20405;-82
2021/06/21 12:16:42;;;;;;;9.55;3.00;;;10.20;99.90;;;;;;5090881;28;20433;-84
2021/06/21 12:19:09;;;;;;;7.93;3.08;;;10.20;99.90;;;;;;5080108;28;20408;-83
2021/06/21 12:21:45;;;;;;;7.65;3.08;;;10.20;99.90;;;;;;5087602;28;20384;-83
2021/06/21 12:24:31;;;;;;;7.05;2.90;;;10.10;99.90;;;;;;5087308;28;20380;-83
2021/06/21 12:27:05;;;;;;;7.28;3.00;;;10.00;99.90;;;;;;5085064;28;20424;-83
2021/06/21 12:29:33;;;;;;;8.75;3.28;;;10.00;99.90;;;;;;5088533;28;20498;-83
2021/06/21 12:32:08;;;;;;;8.90;3.28;;;10.00;99.90;;;;;;5078051;28;20393;-83
2021/06/21 12:35:01;;;;;;;7.03;3.45;;;10.00;99.90;;;;;;5078388;28;20725;-84
2021/06/21 12:37:37;;;;;;;9.70;3.40;;;9.90;99.90;;;;;;5072402;28;20474;-83
2021/06/21 12:40:20;;;;;;;7.10;3.25;;;9.90;99.90;;;;;;5084625;28;20414;-82
2021/06/21 12:42:47;;;;;;;6.28;3.20;;;9.90;99.90;;;;;;5071731;28;20900;-82
2021/06/21 12:45:24;;;;;;;8.73;3.50;;;9.80;99.90;;;;;;5087936;28;20419;-82
2021/06/21 12:47:56;;;;;;;8.30;3.30;;;9.80;99.90;;;;;;5085433;28;20432;-83
2021/06/21 12:50:25;;;;;;;8.88;4.32;;;9.70;99.90;;;;;;5076884;28;20390;-83
2021/06/21 12:52:54;;;;;;;7.72;4.03;;;9.60;99.90;;;;;;5084901;28;20382;-82
2021/06/21 12:55:30;;;;;;;9.52;4.13;;;9.60;99.90;;;;;;5086962;28;20404;-83
2021/06/21 12:58:08;;;;;;;10.57;4.38;;;9.60;99.90;;;;;;5088222;28;20380;-83
2021/06/21 13:00:49;;;;;;;8.32;4.03;;;9.60;99.90;;;;;;5072729;28;20388;-83
2021/06/21 13:03:24;;;;;;;12.02;4.70;;;9.50;99.90;;;;;;5085296;28;20374;-83
2021/06/21 13:05:52;;;;;;;9.05;4.05;;;9.40;99.90;;;;;;5075724;28;20384;-82